sensor_id;sensor_type;location;lat;lon;timestamp;P1;durP1;ratioP1;P2;durP2;ratioP2
49029;SDS011;43337;52.070;4.508;2023-08-24T00:00:55;9.27;;;3.60;;
49029;SDS011;43337;52.070;4.508;2023-08-24T00:03:21;8.70;;;4.70;;
49029;SDS011;43337;52.070;4.508;2023-08-24T00:05:47;8.35;;;4.13;;
49029;SDS011;43337;52.070;4.508;2023-08-24T00:08:13;6.50;;;3.65;;
49029;SDS011;43337;52.070;4.508;2023-08-24T00:10:39;10.55;;;3.60;;
49029;SDS011;43337;52.070;4.508;2023-08-24T00:13:09;7.25;;;3.60;;
49029;SDS011;43337;52.070;4.508;2023-08-24T00:15:35;7.43;;;3.78;;
49029;SDS011;43337;52.070;4.508;2023-08-24T00:18:01;11.60;;;4.10;;
49029;SDS011;43337;52.070;4.508;2023-08-24T00:20:28;11.30;;;4.05;;
49029;SDS011;43337;52.070;4.508;2023-08-24T00:22:55;8.35;;;3.65;;
49029;SDS011;43337;52.070;4.508;2023-08-24T00:25:21;9.95;;;4.28;;
49029;SDS011;43337;52.070;4.508;2023-08-24T00:27:46;7.65;;;3.90;;
49029;SDS011;43337;52.070;4.508;2023-08-24T00:30:12;7.82;;;3.85;;
49029;SDS011;43337;52.070;4.508;2023-08-24T00:32:38;13.05;;;4.07;;
49029;SDS011;43337;52.070;4.508;2023-08-24T00:35:05;7.25;;;3.78;;
49029;SDS011;43337;52.070;4.508;2023-08-24T00:37:34;9.65;;;3.90;;
49029;SDS011;43337;52.070;4.508;2023-08-24T00:40:01;7.35;;;3.72;;
49029;SDS011;43337;52.070;4.508;2023-08-24T00:42:44;8.73;;;4.13;;
49029;SDS011;43337;52.070;4.508;2023-08-24T00:45:30;7.28;;;3.88;;
49029;SDS011;43337;52.070;4.508;2023-08-24T00:47:58;8.63;;;4.07;;
49029;SDS011;43337;52.070;4.508;2023-08-24T00:50:24;8.18;;;4.00;;
49029;SDS011;43337;52.070;4.508;2023-08-24T00:52:49;5.93;;;3.45;;
49029;SDS011;43337;52.070;4.508;2023-08-24T00:55:16;6.82;;;3.47;;
49029;SDS011;43337;52.070;4.508;2023-08-24T00:57:43;7.65;;;3.58;;
49029;SDS011;43337;52.070;4.508;2023-08-24T01:00:10;7.82;;;3.42;;
49029;SDS011;43337;52.070;4.508;2023-08-24T01:02:36;8.18;;;3.35;;
49029;SDS011;43337;52.070;4.508;2023-08-24T01:05:05;10.73;;;3.60;;
49029;SDS011;43337;52.070;4.508;2023-08-24T01:07:35;10.02;;;4.00;;
49029;SDS011;43337;52.070;4.508;2023-08-24T01:10:05;9.57;;;4.43;;
49029;SDS011;43337;52.070;4.508;2023-08-24T01:15:39;10.98;;;3.88;;
49029;SDS011;43337;52.070;4.508;2023-08-24T01:18:08;9.27;;;3.90;;
49029;SDS011;43337;52.070;4.508;2023-08-24T01:20:38;8.50;;;3.80;;
49029;SDS011;43337;52.070;4.508;2023-08-24T01:23:27;9.90;;;4.05;;
49029;SDS011;43337;52.070;4.508;2023-08-24T01:28:44;8.02;;;3.78;;
49029;SDS011;43337;52.070;4.508;2023-08-24T01:31:13;6.75;;;3.67;;
49029;SDS011;43337;52.070;4.508;2023-08-24T01:33:42;8.85;;;4.15;;
49029;SDS011;43337;52.070;4.508;2023-08-24T01:36:11;10.45;;;4.50;;
49029;SDS011;43337;52.070;4.508;2023-08-24T01:38:38;13.30;;;4.18;;
49029;SDS011;43337;52.070;4.508;2023-08-24T01:41:20;9.20;;;4.22;;
49029;SDS011;43337;52.070;4.508;2023-08-24T01:43:53;8.65;;;4.32;;
49029;SDS011;43337;52.070;4.508;2023-08-24T01:46:21;9.38;;;4.57;;
49029;SDS011;43337;52.070;4.508;2023-08-24T01:48:48;10.13;;;4.13;;
49029;SDS011;43337;52.070;4.508;2023-08-24T01:51:15;10.30;;;4.55;;
49029;SDS011;43337;52.070;4.508;2023-08-24T01:53:41;7.72;;;3.85;;
49029;SDS011;43337;52.070;4.508;2023-08-24T01:56:11;8.45;;;4.10;;
49029;SDS011;43337;52.070;4.508;2023-08-24T01:58:37;8.68;;;4.13;;
49029;SDS011;43337;52.070;4.508;2023-08-24T02:01:03;7.72;;;3.88;;
49029;SDS011;43337;52.070;4.508;2023-08-24T02:03:30;9.10;;;4.30;;
49029;SDS011;43337;52.070;4.508;2023-08-24T02:05:55;8.82;;;4.22;;
49029;SDS011;43337;52.070;4.508;2023-08-24T02:08:21;7.38;;;3.80;;
49029;SDS011;43337;52.070;4.508;2023-08-24T02:10:46;11.35;;;4.90;;
49029;SDS011;43337;52.070;4.508;2023-08-24T02:13:12;10.95;;;4.32;;
49029;SDS011;43337;52.070;4.508;2023-08-24T02:15:37;9.30;;;5.28;;
49029;SDS011;43337;52.070;4.508;2023-08-24T02:18:04;10.20;;;4.90;;
49029;SDS011;43337;52.070;4.508;2023-08-24T02:20:30;8.75;;;4.47;;
49029;SDS011;43337;52.070;4.508;2023-08-24T02:22:59;12.07;;;4.43;;
49029;SDS011;43337;52.070;4.508;2023-08-24T02:25:24;12.00;;;5.07;;
49029;SDS011;43337;52.070;4.508;2023-08-24T02:27:50;12.43;;;5.18;;
49029;SDS011;43337;52.070;4.508;2023-08-24T02:30:16;13.25;;;4.88;;
49029;SDS011;43337;52.070;4.508;2023-08-24T02:32:41;8.98;;;4.68;;
49029;SDS011;43337;52.070;4.508;2023-08-24T02:35:07;8.25;;;4.72;;
49029;SDS011;43337;52.070;4.508;2023-08-24T02:37:33;7.75;;;4.43;;
49029;SDS011;43337;52.070;4.508;2023-08-24T02:39:58;12.85;;;5.40;;
49029;SDS011;43337;52.070;4.508;2023-08-24T02:42:24;10.10;;;4.53;;
49029;SDS011;43337;52.070;4.508;2023-08-24T02:44:49;14.02;;;5.55;;
49029;SDS011;43337;52.070;4.508;2023-08-24T02:47:14;11.48;;;5.30;;
49029;SDS011;43337;52.070;4.508;2023-08-24T02:49:40;9.60;;;4.80;;
49029;SDS011;43337;52.070;4.508;2023-08-24T02:52:06;10.18;;;5.18;;
49029;SDS011;43337;52.070;4.508;2023-08-24T02:54:31;9.13;;;5.00;;
49029;SDS011;43337;52.070;4.508;2023-08-24T02:56:56;10.27;;;5.30;;
49029;SDS011;43337;52.070;4.508;2023-08-24T02:59:22;11.20;;;5.10;;
49029;SDS011;43337;52.070;4.508;2023-08-24T03:01:47;11.55;;;5.28;;
49029;SDS011;43337;52.070;4.508;2023-08-24T03:04:13;10.45;;;5.05;;
49029;SDS011;43337;52.070;4.508;2023-08-24T03:06:39;14.60;;;5.32;;
49029;SDS011;43337;52.070;4.508;2023-08-24T03:09:04;10.90;;;5.38;;
49029;SDS011;43337;52.070;4.508;2023-08-24T03:11:30;9.25;;;5.25;;
49029;SDS011;43337;52.070;4.508;2023-08-24T03:13:55;12.68;;;5.47;;
49029;SDS011;43337;52.070;4.508;2023-08-24T03:16:20;13.43;;;6.70;;
49029;SDS011;43337;52.070;4.508;2023-08-24T03:18:46;12.23;;;5.55;;
49029;SDS011;43337;52.070;4.508;2023-08-24T03:21:12;11.23;;;5.90;;
49029;SDS011;43337;52.070;4.508;2023-08-24T03:23:37;11.30;;;5.32;;
49029;SDS011;43337;52.070;4.508;2023-08-24T03:26:02;12.52;;;5.25;;
49029;SDS011;43337;52.070;4.508;2023-08-24T03:28:28;10.10;;;5.28;;
49029;SDS011;43337;52.070;4.508;2023-08-24T03:30:53;10.85;;;6.00;;
49029;SDS011;43337;52.070;4.508;2023-08-24T03:33:20;12.93;;;5.95;;
49029;SDS011;43337;52.070;4.508;2023-08-24T03:35:46;12.05;;;5.60;;
49029;SDS011;43337;52.070;4.508;2023-08-24T03:38:12;11.90;;;5.35;;
49029;SDS011;43337;52.070;4.508;2023-08-24T03:40:37;12.45;;;6.05;;
49029;SDS011;43337;52.070;4.508;2023-08-24T03:43:03;10.10;;;5.70;;
49029;SDS011;43337;52.070;4.508;2023-08-24T03:45:29;9.38;;;5.63;;
49029;SDS011;43337;52.070;4.508;2023-08-24T03:47:54;11.05;;;5.57;;
49029;SDS011;43337;52.070;4.508;2023-08-24T03:50:20;9.77;;;5.68;;
49029;SDS011;43337;52.070;4.508;2023-08-24T03:52:47;14.85;;;6.28;;
49029;SDS011;43337;52.070;4.508;2023-08-24T03:55:13;12.48;;;5.57;;
49029;SDS011;43337;52.070;4.508;2023-08-24T03:57:38;12.75;;;6.00;;
49029;SDS011;43337;52.070;4.508;2023-08-24T04:00:05;11.88;;;5.78;;
49029;SDS011;43337;52.070;4.508;2023-08-24T04:02:35;12.38;;;6.18;;
49029;SDS011;43337;52.070;4.508;2023-08-24T04:05:01;13.77;;;7.65;;
49029;SDS011;43337;52.070;4.508;2023-08-24T04:07:26;10.95;;;6.75;;
49029;SDS011;43337;52.070;4.508;2023-08-24T04:09:52;11.13;;;6.57;;
49029;SDS011;43337;52.070;4.508;2023-08-24T04:12:17;11.57;;;6.35;;
49029;SDS011;43337;52.070;4.508;2023-08-24T04:14:42;13.38;;;6.22;;
49029;SDS011;43337;52.070;4.508;2023-08-24T04:17:08;12.32;;;6.47;;
49029;SDS011;43337;52.070;4.508;2023-08-24T04:19:33;12.27;;;5.80;;
49029;SDS011;43337;52.070;4.508;2023-08-24T04:22:02;11.43;;;6.30;;
49029;SDS011;43337;52.070;4.508;2023-08-24T04:24:27;12.63;;;6.22;;
49029;SDS011;43337;52.070;4.508;2023-08-24T04:26:53;10.55;;;6.07;;
49029;SDS011;43337;52.070;4.508;2023-08-24T04:29:19;12.75;;;6.50;;
49029;SDS011;43337;52.070;4.508;2023-08-24T04:31:44;11.18;;;5.82;;
49029;SDS011;43337;52.070;4.508;2023-08-24T04:34:10;12.45;;;6.70;;
49029;SDS011;43337;52.070;4.508;2023-08-24T04:36:36;12.85;;;6.32;;
49029;SDS011;43337;52.070;4.508;2023-08-24T04:39:02;15.98;;;6.30;;
49029;SDS011;43337;52.070;4.508;2023-08-24T04:41:27;13.20;;;6.97;;
49029;SDS011;43337;52.070;4.508;2023-08-24T04:43:53;13.20;;;6.82;;
49029;SDS011;43337;52.070;4.508;2023-08-24T04:46:19;13.52;;;6.47;;
49029;SDS011;43337;52.070;4.508;2023-08-24T04:48:45;12.85;;;6.82;;
49029;SDS011;43337;52.070;4.508;2023-08-24T04:51:10;14.48;;;7.03;;
49029;SDS011;43337;52.070;4.508;2023-08-24T04:53:35;11.85;;;6.35;;
49029;SDS011;43337;52.070;4.508;2023-08-24T04:56:01;11.60;;;6.43;;
49029;SDS011;43337;52.070;4.508;2023-08-24T04:58:26;10.20;;;6.15;;
49029;SDS011;43337;52.070;4.508;2023-08-24T05:00:52;12.95;;;7.03;;
49029;SDS011;43337;52.070;4.508;2023-08-24T05:03:17;11.38;;;6.45;;
49029;SDS011;43337;52.070;4.508;2023-08-24T05:05:45;14.85;;;7.30;;
49029;SDS011;43337;52.070;4.508;2023-08-24T05:08:10;12.68;;;6.80;;
49029;SDS011;43337;52.070;4.508;2023-08-24T05:10:36;15.95;;;7.05;;
49029;SDS011;43337;52.070;4.508;2023-08-24T05:13:02;12.90;;;6.45;;
49029;SDS011;43337;52.070;4.508;2023-08-24T05:15:28;11.73;;;6.88;;
49029;SDS011;43337;52.070;4.508;2023-08-24T05:17:54;17.75;;;7.63;;
49029;SDS011;43337;52.070;4.508;2023-08-24T05:20:24;14.50;;;6.65;;
49029;SDS011;43337;52.070;4.508;2023-08-24T05:22:52;13.52;;;7.00;;
49029;SDS011;43337;52.070;4.508;2023-08-24T05:25:20;13.40;;;7.07;;
49029;SDS011;43337;52.070;4.508;2023-08-24T05:27:46;14.55;;;6.70;;
49029;SDS011;43337;52.070;4.508;2023-08-24T05:30:11;14.50;;;7.32;;
49029;SDS011;43337;52.070;4.508;2023-08-24T05:32:37;12.70;;;6.80;;
49029;SDS011;43337;52.070;4.508;2023-08-24T05:35:04;13.73;;;7.30;;
49029;SDS011;43337;52.070;4.508;2023-08-24T05:37:30;13.23;;;7.47;;
49029;SDS011;43337;52.070;4.508;2023-08-24T05:39:55;11.27;;;7.03;;
49029;SDS011;43337;52.070;4.508;2023-08-24T05:42:21;12.77;;;7.32;;
49029;SDS011;43337;52.070;4.508;2023-08-24T05:44:46;14.68;;;7.35;;
49029;SDS011;43337;52.070;4.508;2023-08-24T05:47:11;14.85;;;7.30;;
49029;SDS011;43337;52.070;4.508;2023-08-24T05:49:37;16.75;;;7.53;;
49029;SDS011;43337;52.070;4.508;2023-08-24T05:52:03;14.38;;;7.22;;
49029;SDS011;43337;52.070;4.508;2023-08-24T05:54:28;18.25;;;8.30;;
49029;SDS011;43337;52.070;4.508;2023-08-24T05:56:54;16.73;;;7.75;;
49029;SDS011;43337;52.070;4.508;2023-08-24T05:59:19;17.27;;;8.50;;
49029;SDS011;43337;52.070;4.508;2023-08-24T06:01:44;16.08;;;8.77;;
49029;SDS011;43337;52.070;4.508;2023-08-24T06:04:10;14.32;;;8.13;;
49029;SDS011;43337;52.070;4.508;2023-08-24T06:06:36;15.98;;;8.43;;
49029;SDS011;43337;52.070;4.508;2023-08-24T06:09:02;18.05;;;8.13;;
49029;SDS011;43337;52.070;4.508;2023-08-24T06:11:34;16.50;;;8.68;;
49029;SDS011;43337;52.070;4.508;2023-08-24T06:14:00;16.98;;;8.52;;
49029;SDS011;43337;52.070;4.508;2023-08-24T06:16:26;12.50;;;7.80;;
49029;SDS011;43337;52.070;4.508;2023-08-24T06:18:51;15.90;;;8.93;;
49029;SDS011;43337;52.070;4.508;2023-08-24T06:21:17;15.77;;;8.70;;
49029;SDS011;43337;52.070;4.508;2023-08-24T06:23:42;16.25;;;8.20;;
49029;SDS011;43337;52.070;4.508;2023-08-24T06:26:09;17.80;;;9.48;;
49029;SDS011;43337;52.070;4.508;2023-08-24T06:28:34;16.73;;;9.68;;
49029;SDS011;43337;52.070;4.508;2023-08-24T06:30:59;17.38;;;8.90;;
49029;SDS011;43337;52.070;4.508;2023-08-24T06:33:28;16.52;;;9.30;;
49029;SDS011;43337;52.070;4.508;2023-08-24T06:35:57;23.50;;;9.10;;
49029;SDS011;43337;52.070;4.508;2023-08-24T06:38:22;18.80;;;9.27;;
49029;SDS011;43337;52.070;4.508;2023-08-24T06:40:48;18.27;;;8.35;;
49029;SDS011;43337;52.070;4.508;2023-08-24T06:43:13;15.80;;;8.63;;
49029;SDS011;43337;52.070;4.508;2023-08-24T06:45:43;15.68;;;10.27;;
49029;SDS011;43337;52.070;4.508;2023-08-24T06:48:09;17.85;;;10.32;;
49029;SDS011;43337;52.070;4.508;2023-08-24T06:50:34;16.45;;;8.95;;
49029;SDS011;43337;52.070;4.508;2023-08-24T06:53:01;15.75;;;9.13;;
49029;SDS011;43337;52.070;4.508;2023-08-24T06:55:28;17.48;;;9.18;;
49029;SDS011;43337;52.070;4.508;2023-08-24T06:57:53;16.80;;;10.07;;
49029;SDS011;43337;52.070;4.508;2023-08-24T07:00:19;14.40;;;9.13;;
49029;SDS011;43337;52.070;4.508;2023-08-24T07:02:54;15.10;;;9.10;;
49029;SDS011;43337;52.070;4.508;2023-08-24T07:05:19;18.42;;;8.63;;
49029;SDS011;43337;52.070;4.508;2023-08-24T07:07:45;19.67;;;9.90;;
49029;SDS011;43337;52.070;4.508;2023-08-24T07:10:12;17.08;;;9.70;;
49029;SDS011;43337;52.070;4.508;2023-08-24T07:12:38;21.20;;;9.93;;
49029;SDS011;43337;52.070;4.508;2023-08-24T07:15:07;20.65;;;10.60;;
49029;SDS011;43337;52.070;4.508;2023-08-24T07:17:33;19.33;;;10.73;;
49029;SDS011;43337;52.070;4.508;2023-08-24T07:19:58;18.23;;;10.05;;
49029;SDS011;43337;52.070;4.508;2023-08-24T07:22:24;17.85;;;8.80;;
49029;SDS011;43337;52.070;4.508;2023-08-24T07:24:51;23.48;;;10.43;;
49029;SDS011;43337;52.070;4.508;2023-08-24T07:27:17;21.98;;;10.73;;
49029;SDS011;43337;52.070;4.508;2023-08-24T07:29:43;20.55;;;10.68;;
49029;SDS011;43337;52.070;4.508;2023-08-24T07:32:09;18.88;;;10.70;;
49029;SDS011;43337;52.070;4.508;2023-08-24T07:34:34;19.65;;;10.52;;
49029;SDS011;43337;52.070;4.508;2023-08-24T07:36:59;15.77;;;9.35;;
49029;SDS011;43337;52.070;4.508;2023-08-24T07:39:25;21.73;;;10.75;;
49029;SDS011;43337;52.070;4.508;2023-08-24T07:41:50;17.75;;;10.13;;
49029;SDS011;43337;52.070;4.508;2023-08-24T07:44:16;20.48;;;9.68;;
49029;SDS011;43337;52.070;4.508;2023-08-24T07:46:41;21.05;;;10.27;;
49029;SDS011;43337;52.070;4.508;2023-08-24T07:49:07;19.23;;;9.77;;
49029;SDS011;43337;52.070;4.508;2023-08-24T07:51:33;17.92;;;10.02;;
49029;SDS011;43337;52.070;4.508;2023-08-24T07:53:58;17.67;;;9.75;;
49029;SDS011;43337;52.070;4.508;2023-08-24T07:56:24;18.23;;;10.30;;
49029;SDS011;43337;52.070;4.508;2023-08-24T07:58:50;21.17;;;9.68;;
49029;SDS011;43337;52.070;4.508;2023-08-24T08:01:15;16.73;;;10.55;;
49029;SDS011;43337;52.070;4.508;2023-08-24T08:03:41;17.30;;;9.50;;
49029;SDS011;43337;52.070;4.508;2023-08-24T08:06:06;25.63;;;9.95;;
49029;SDS011;43337;52.070;4.508;2023-08-24T08:08:31;14.77;;;9.23;;
49029;SDS011;43337;52.070;4.508;2023-08-24T08:11:00;17.73;;;9.73;;
49029;SDS011;43337;52.070;4.508;2023-08-24T08:13:27;18.70;;;9.05;;
49029;SDS011;43337;52.070;4.508;2023-08-24T08:15:54;19.45;;;9.38;;
49029;SDS011;43337;52.070;4.508;2023-08-24T08:18:25;13.63;;;8.82;;
49029;SDS011;43337;52.070;4.508;2023-08-24T08:20:51;16.92;;;8.77;;
49029;SDS011;43337;52.070;4.508;2023-08-24T08:23:17;15.52;;;8.90;;
49029;SDS011;43337;52.070;4.508;2023-08-24T08:25:42;13.63;;;8.82;;
49029;SDS011;43337;52.070;4.508;2023-08-24T08:28:08;16.52;;;10.05;;
49029;SDS011;43337;52.070;4.508;2023-08-24T08:30:33;17.75;;;10.27;;
49029;SDS011;43337;52.070;4.508;2023-08-24T08:32:58;14.05;;;8.85;;
49029;SDS011;43337;52.070;4.508;2023-08-24T08:35:24;15.68;;;9.68;;
49029;SDS011;43337;52.070;4.508;2023-08-24T08:37:50;15.32;;;10.10;;
49029;SDS011;43337;52.070;4.508;2023-08-24T08:40:17;19.85;;;10.25;;
49029;SDS011;43337;52.070;4.508;2023-08-24T08:42:42;18.88;;;10.52;;
49029;SDS011;43337;52.070;4.508;2023-08-24T08:45:09;16.27;;;9.52;;
49029;SDS011;43337;52.070;4.508;2023-08-24T08:47:37;18.27;;;10.25;;
49029;SDS011;43337;52.070;4.508;2023-08-24T08:50:03;15.75;;;10.10;;
49029;SDS011;43337;52.070;4.508;2023-08-24T08:52:30;17.27;;;9.52;;
49029;SDS011;43337;52.070;4.508;2023-08-24T08:54:56;16.45;;;9.50;;
49029;SDS011;43337;52.070;4.508;2023-08-24T08:57:22;16.83;;;10.20;;
49029;SDS011;43337;52.070;4.508;2023-08-24T08:59:49;18.95;;;10.93;;
49029;SDS011;43337;52.070;4.508;2023-08-24T09:02:17;29.95;;;11.13;;
49029;SDS011;43337;52.070;4.508;2023-08-24T09:04:44;18.42;;;10.13;;
49029;SDS011;43337;52.070;4.508;2023-08-24T09:07:10;16.23;;;9.65;;
49029;SDS011;43337;52.070;4.508;2023-08-24T09:09:38;17.75;;;10.27;;
49029;SDS011;43337;52.070;4.508;2023-08-24T09:12:04;14.98;;;9.38;;
49029;SDS011;43337;52.070;4.508;2023-08-24T09:14:30;16.27;;;9.95;;
49029;SDS011;43337;52.070;4.508;2023-08-24T09:16:56;15.68;;;10.02;;
49029;SDS011;43337;52.070;4.508;2023-08-24T09:19:27;17.70;;;10.23;;
49029;SDS011;43337;52.070;4.508;2023-08-24T09:21:56;16.55;;;8.80;;
49029;SDS011;43337;52.070;4.508;2023-08-24T09:24:28;19.52;;;10.15;;
49029;SDS011;43337;52.070;4.508;2023-08-24T09:26:55;19.67;;;11.00;;
49029;SDS011;43337;52.070;4.508;2023-08-24T09:29:20;14.40;;;9.90;;
49029;SDS011;43337;52.070;4.508;2023-08-24T09:31:46;19.20;;;10.32;;
49029;SDS011;43337;52.070;4.508;2023-08-24T09:34:11;16.83;;;10.35;;
49029;SDS011;43337;52.070;4.508;2023-08-24T09:36:38;17.73;;;9.60;;
49029;SDS011;43337;52.070;4.508;2023-08-24T09:39:05;19.80;;;10.82;;
49029;SDS011;43337;52.070;4.508;2023-08-24T09:41:43;18.40;;;10.48;;
49029;SDS011;43337;52.070;4.508;2023-08-24T09:44:09;18.70;;;9.25;;
49029;SDS011;43337;52.070;4.508;2023-08-24T09:46:37;17.90;;;9.88;;
49029;SDS011;43337;52.070;4.508;2023-08-24T09:49:04;17.55;;;9.50;;
49029;SDS011;43337;52.070;4.508;2023-08-24T09:51:30;16.13;;;9.75;;
49029;SDS011;43337;52.070;4.508;2023-08-24T09:53:57;18.02;;;10.60;;
49029;SDS011;43337;52.070;4.508;2023-08-24T09:56:28;17.73;;;9.43;;
49029;SDS011;43337;52.070;4.508;2023-08-24T09:58:54;17.25;;;9.32;;
49029;SDS011;43337;52.070;4.508;2023-08-24T10:01:23;17.95;;;9.95;;
49029;SDS011;43337;52.070;4.508;2023-08-24T10:03:50;16.42;;;10.65;;
49029;SDS011;43337;52.070;4.508;2023-08-24T10:06:20;20.88;;;10.88;;
49029;SDS011;43337;52.070;4.508;2023-08-24T10:08:49;15.60;;;10.82;;
49029;SDS011;43337;52.070;4.508;2023-08-24T10:11:19;19.83;;;9.52;;
49029;SDS011;43337;52.070;4.508;2023-08-24T10:13:58;19.38;;;11.13;;
49029;SDS011;43337;52.070;4.508;2023-08-24T10:16:32;19.08;;;11.88;;
49029;SDS011;43337;52.070;4.508;2023-08-24T10:18:59;19.95;;;11.20;;
49029;SDS011;43337;52.070;4.508;2023-08-24T10:21:25;19.63;;;10.75;;
49029;SDS011;43337;52.070;4.508;2023-08-24T10:23:53;21.67;;;12.20;;
49029;SDS011;43337;52.070;4.508;2023-08-24T10:26:23;18.08;;;11.55;;
49029;SDS011;43337;52.070;4.508;2023-08-24T10:28:49;26.35;;;12.23;;
49029;SDS011;43337;52.070;4.508;2023-08-24T10:31:16;20.02;;;11.45;;
49029;SDS011;43337;52.070;4.508;2023-08-24T10:33:42;23.90;;;12.68;;
49029;SDS011;43337;52.070;4.508;2023-08-24T10:36:10;20.23;;;11.30;;
49029;SDS011;43337;52.070;4.508;2023-08-24T10:38:39;18.58;;;12.02;;
49029;SDS011;43337;52.070;4.508;2023-08-24T10:41:07;18.58;;;11.65;;
49029;SDS011;43337;52.070;4.508;2023-08-24T10:43:38;20.27;;;11.50;;
49029;SDS011;43337;52.070;4.508;2023-08-24T10:46:11;19.85;;;11.55;;
49029;SDS011;43337;52.070;4.508;2023-08-24T10:53:46;18.67;;;10.95;;
49029;SDS011;43337;52.070;4.508;2023-08-24T10:56:16;17.35;;;10.85;;
49029;SDS011;43337;52.070;4.508;2023-08-24T10:58:43;18.50;;;9.85;;
49029;SDS011;43337;52.070;4.508;2023-08-24T11:01:16;15.48;;;10.25;;
49029;SDS011;43337;52.070;4.508;2023-08-24T11:03:46;19.30;;;10.25;;
49029;SDS011;43337;52.070;4.508;2023-08-24T11:06:24;18.65;;;9.27;;
49029;SDS011;43337;52.070;4.508;2023-08-24T11:09:07;17.85;;;10.27;;
49029;SDS011;43337;52.070;4.508;2023-08-24T11:11:40;14.68;;;9.30;;
49029;SDS011;43337;52.070;4.508;2023-08-24T11:14:22;15.88;;;9.95;;
49029;SDS011;43337;52.070;4.508;2023-08-24T11:16:50;16.52;;;10.63;;
49029;SDS011;43337;52.070;4.508;2023-08-24T11:19:15;17.88;;;9.75;;
49029;SDS011;43337;52.070;4.508;2023-08-24T11:21:42;23.08;;;10.02;;
49029;SDS011;43337;52.070;4.508;2023-08-24T11:24:10;17.90;;;8.75;;
49029;SDS011;43337;52.070;4.508;2023-08-24T11:26:39;17.08;;;10.00;;
49029;SDS011;43337;52.070;4.508;2023-08-24T11:29:06;16.77;;;9.30;;
49029;SDS011;43337;52.070;4.508;2023-08-24T11:31:32;16.13;;;9.13;;
49029;SDS011;43337;52.070;4.508;2023-08-24T11:33:59;16.60;;;10.43;;
49029;SDS011;43337;52.070;4.508;2023-08-24T11:36:25;18.05;;;9.77;;
49029;SDS011;43337;52.070;4.508;2023-08-24T11:38:55;20.10;;;10.13;;
49029;SDS011;43337;52.070;4.508;2023-08-24T11:41:22;15.95;;;9.25;;
49029;SDS011;43337;52.070;4.508;2023-08-24T11:43:48;14.95;;;9.60;;
49029;SDS011;43337;52.070;4.508;2023-08-24T11:46:18;14.55;;;10.48;;
49029;SDS011;43337;52.070;4.508;2023-08-24T11:48:44;16.73;;;9.98;;
49029;SDS011;43337;52.070;4.508;2023-08-24T11:51:11;23.73;;;11.68;;
49029;SDS011;43337;52.070;4.508;2023-08-24T11:53:46;20.77;;;11.50;;
49029;SDS011;43337;52.070;4.508;2023-08-24T11:56:12;24.48;;;12.00;;
49029;SDS011;43337;52.070;4.508;2023-08-24T11:58:41;16.75;;;11.98;;
49029;SDS011;43337;52.070;4.508;2023-08-24T12:01:08;22.30;;;12.23;;
49029;SDS011;43337;52.070;4.508;2023-08-24T12:03:35;17.40;;;11.45;;
49029;SDS011;43337;52.070;4.508;2023-08-24T12:06:02;19.88;;;11.90;;
49029;SDS011;43337;52.070;4.508;2023-08-24T12:08:37;17.23;;;11.50;;
49029;SDS011;43337;52.070;4.508;2023-08-24T12:11:09;16.33;;;10.98;;
49029;SDS011;43337;52.070;4.508;2023-08-24T12:13:35;19.77;;;11.73;;
49029;SDS011;43337;52.070;4.508;2023-08-24T12:16:00;17.20;;;11.52;;
49029;SDS011;43337;52.070;4.508;2023-08-24T12:18:28;17.92;;;11.75;;
49029;SDS011;43337;52.070;4.508;2023-08-24T12:20:53;19.90;;;11.00;;
49029;SDS011;43337;52.070;4.508;2023-08-24T12:23:19;21.67;;;11.82;;
49029;SDS011;43337;52.070;4.508;2023-08-24T12:25:44;17.73;;;11.90;;
49029;SDS011;43337;52.070;4.508;2023-08-24T12:28:14;16.35;;;10.90;;
49029;SDS011;43337;52.070;4.508;2023-08-24T12:30:47;18.70;;;11.13;;
49029;SDS011;43337;52.070;4.508;2023-08-24T12:33:27;18.93;;;10.97;;
49029;SDS011;43337;52.070;4.508;2023-08-24T12:35:53;21.38;;;11.63;;
49029;SDS011;43337;52.070;4.508;2023-08-24T12:38:20;17.83;;;11.35;;
49029;SDS011;43337;52.070;4.508;2023-08-24T12:40:50;16.50;;;10.18;;
49029;SDS011;43337;52.070;4.508;2023-08-24T12:43:15;13.80;;;9.57;;
49029;SDS011;43337;52.070;4.508;2023-08-24T12:45:41;17.50;;;10.68;;
49029;SDS011;43337;52.070;4.508;2023-08-24T12:48:08;20.38;;;10.60;;
49029;SDS011;43337;52.070;4.508;2023-08-24T12:50:34;14.07;;;9.63;;
49029;SDS011;43337;52.070;4.508;2023-08-24T12:53:00;18.50;;;10.57;;
49029;SDS011;43337;52.070;4.508;2023-08-24T12:55:27;16.23;;;10.43;;
49029;SDS011;43337;52.070;4.508;2023-08-24T12:57:52;18.73;;;11.13;;
49029;SDS011;43337;52.070;4.508;2023-08-24T13:00:18;17.45;;;11.15;;
49029;SDS011;43337;52.070;4.508;2023-08-24T13:02:44;19.77;;;12.13;;
49029;SDS011;43337;52.070;4.508;2023-08-24T13:05:09;17.10;;;11.65;;
49029;SDS011;43337;52.070;4.508;2023-08-24T13:07:35;16.75;;;11.00;;
49029;SDS011;43337;52.070;4.508;2023-08-24T13:10:01;20.08;;;12.43;;
49029;SDS011;43337;52.070;4.508;2023-08-24T13:12:28;16.48;;;11.35;;
49029;SDS011;43337;52.070;4.508;2023-08-24T13:14:53;19.90;;;12.30;;
49029;SDS011;43337;52.070;4.508;2023-08-24T13:17:18;18.63;;;10.68;;
49029;SDS011;43337;52.070;4.508;2023-08-24T13:19:44;22.70;;;12.48;;
49029;SDS011;43337;52.070;4.508;2023-08-24T13:22:10;20.73;;;13.07;;
49029;SDS011;43337;52.070;4.508;2023-08-24T13:24:35;17.30;;;12.57;;
49029;SDS011;43337;52.070;4.508;2023-08-24T13:27:01;22.58;;;13.18;;
49029;SDS011;43337;52.070;4.508;2023-08-24T13:29:28;20.98;;;12.68;;
49029;SDS011;43337;52.070;4.508;2023-08-24T13:31:53;23.42;;;12.13;;
49029;SDS011;43337;52.070;4.508;2023-08-24T13:34:18;19.30;;;13.45;;
49029;SDS011;43337;52.070;4.508;2023-08-24T13:36:44;21.75;;;14.43;;
49029;SDS011;43337;52.070;4.508;2023-08-24T13:39:09;18.70;;;12.00;;
49029;SDS011;43337;52.070;4.508;2023-08-24T13:41:35;24.98;;;13.95;;
49029;SDS011;43337;52.070;4.508;2023-08-24T13:44:01;19.83;;;13.13;;
49029;SDS011;43337;52.070;4.508;2023-08-24T13:46:26;21.48;;;13.70;;
49029;SDS011;43337;52.070;4.508;2023-08-24T13:48:52;23.88;;;13.68;;
49029;SDS011;43337;52.070;4.508;2023-08-24T13:51:17;21.73;;;13.52;;
49029;SDS011;43337;52.070;4.508;2023-08-24T13:53:42;23.02;;;13.93;;
49029;SDS011;43337;52.070;4.508;2023-08-24T13:56:08;22.75;;;13.93;;
49029;SDS011;43337;52.070;4.508;2023-08-24T13:58:33;23.77;;;13.57;;
49029;SDS011;43337;52.070;4.508;2023-08-24T14:00:59;24.80;;;14.32;;
49029;SDS011;43337;52.070;4.508;2023-08-24T14:03:24;23.08;;;14.80;;
49029;SDS011;43337;52.070;4.508;2023-08-24T14:05:54;20.50;;;13.80;;
49029;SDS011;43337;52.070;4.508;2023-08-24T14:08:20;25.60;;;15.48;;
49029;SDS011;43337;52.070;4.508;2023-08-24T14:10:46;18.60;;;12.93;;
49029;SDS011;43337;52.070;4.508;2023-08-24T14:13:13;21.08;;;14.73;;
49029;SDS011;43337;52.070;4.508;2023-08-24T14:15:39;22.25;;;13.23;;
49029;SDS011;43337;52.070;4.508;2023-08-24T14:18:06;20.23;;;13.18;;
49029;SDS011;43337;52.070;4.508;2023-08-24T14:20:31;20.85;;;13.02;;
49029;SDS011;43337;52.070;4.508;2023-08-24T14:22:57;16.65;;;11.32;;
49029;SDS011;43337;52.070;4.508;2023-08-24T14:25:22;19.08;;;10.60;;
49029;SDS011;43337;52.070;4.508;2023-08-24T14:27:48;18.17;;;9.93;;
49029;SDS011;43337;52.070;4.508;2023-08-24T14:30:13;21.13;;;11.07;;
49029;SDS011;43337;52.070;4.508;2023-08-24T14:32:39;19.60;;;10.52;;
49029;SDS011;43337;52.070;4.508;2023-08-24T14:35:05;15.82;;;9.23;;
49029;SDS011;43337;52.070;4.508;2023-08-24T14:37:31;18.38;;;9.48;;
49029;SDS011;43337;52.070;4.508;2023-08-24T14:39:58;17.73;;;9.02;;